createdAt,value
2019-02-26T00:00:12.819Z,1008.78
2019-02-26T00:01:14.452Z,1008.77
2019-02-26T00:02:14.849Z,1008.75
2019-02-26T00:03:13.088Z,1008.77
2019-02-26T00:04:12.080Z,1008.78
2019-02-26T00:05:12.267Z,1008.80
2019-02-26T00:06:12.063Z,1008.76
2019-02-26T00:07:14.225Z,1008.78
2019-02-26T00:08:12.046Z,1008.76
2019-02-26T00:09:12.026Z,1008.72
2019-02-26T00:10:12.022Z,1008.67
2019-02-26T00:11:12.223Z,1008.68
2019-02-26T00:12:12.009Z,1008.65
2019-02-26T00:13:11.990Z,1008.62
2019-02-26T00:14:15.560Z,1008.61
2019-02-26T00:15:12.960Z,1008.57
2019-02-26T00:16:14.966Z,1008.58
2019-02-26T00:17:13.009Z,1008.61
2019-02-26T00:18:13.961Z,1008.60
2019-02-26T00:19:14.264Z,1008.63
2019-02-26T00:20:12.880Z,1008.61
2019-02-26T00:21:11.901Z,1008.59
2019-02-26T00:22:13.726Z,1008.60
2019-02-26T00:23:12.085Z,1008.62
2019-02-26T00:24:12.823Z,1008.62
2019-02-26T00:25:12.863Z,1008.63
2019-02-26T00:26:12.735Z,1008.62
2019-02-26T00:27:11.843Z,1008.56
2019-02-26T00:28:13.125Z,1008.59
2019-02-26T00:29:11.814Z,1008.62
2019-02-26T00:30:13.681Z,1008.60
2019-02-26T00:31:11.795Z,1008.62
2019-02-26T00:32:13.840Z,1008.64
2019-02-26T00:33:11.775Z,1008.61
2019-02-26T00:34:14.026Z,1008.63
2019-02-26T00:35:11.952Z,1008.61
2019-02-26T00:36:13.296Z,1008.61
2019-02-26T00:37:11.746Z,1008.62
2019-02-26T00:38:13.345Z,1008.60
2019-02-26T00:39:11.742Z,1008.62
2019-02-26T00:40:12.394Z,1008.64
2019-02-26T00:41:11.689Z,1008.68
2019-02-26T00:42:11.892Z,1008.69
2019-02-26T00:43:11.669Z,1008.70
2019-02-26T00:44:11.669Z,1008.67
2019-02-26T00:45:11.655Z,1008.68
2019-02-26T00:46:11.636Z,1008.70
2019-02-26T00:47:11.643Z,1008.76
2019-02-26T00:48:11.799Z,1008.75
2019-02-26T00:49:11.618Z,1008.78
2019-02-26T00:50:12.366Z,1008.81
2019-02-26T00:51:11.619Z,1008.84
2019-02-26T00:52:13.190Z,1008.85
2019-02-26T00:53:11.559Z,1008.86
2019-02-26T00:54:11.559Z,1008.83
2019-02-26T00:55:11.553Z,1008.80
2019-02-26T00:56:11.539Z,1008.80
2019-02-26T00:57:13.846Z,1008.76
2019-02-26T00:58:12.862Z,1008.76
2019-02-26T00:59:11.533Z,1008.74
2019-02-26T01:00:12.306Z,1008.74
2019-02-26T01:01:12.924Z,1008.73
2019-02-26T01:02:11.780Z,1008.69
2019-02-26T01:03:13.265Z,1008.66
2019-02-26T01:04:11.451Z,1008.67
2019-02-26T01:05:13.163Z,1008.62
2019-02-26T01:06:11.423Z,1008.60
2019-02-26T01:07:11.571Z,1008.59
2019-02-26T01:08:13.448Z,1008.56
2019-02-26T01:09:11.415Z,1008.55
2019-02-26T01:10:13.388Z,1008.59
2019-02-26T01:11:11.583Z,1008.60
2019-02-26T01:12:13.575Z,1008.57
2019-02-26T01:13:11.357Z,1008.59
2019-02-26T01:14:11.337Z,1008.57
2019-02-26T01:15:12.163Z,1008.56
2019-02-26T01:16:11.316Z,1008.59
2019-02-26T01:17:12.631Z,1008.59
2019-02-26T01:18:11.323Z,1008.56
2019-02-26T01:19:13.509Z,1008.55
2019-02-26T01:20:11.325Z,1008.56
2019-02-26T01:21:11.260Z,1008.54
2019-02-26T01:22:11.254Z,1008.56
2019-02-26T01:23:11.441Z,1008.52
2019-02-26T01:24:11.231Z,1008.55
2019-02-26T01:25:12.652Z,1008.53
2019-02-26T01:26:12.154Z,1008.52
2019-02-26T01:27:11.208Z,1008.51
2019-02-26T01:28:14.121Z,1008.48
2019-02-26T01:29:11.194Z,1008.48
2019-02-26T01:30:11.393Z,1008.50
2019-02-26T01:31:11.154Z,1008.49
2019-02-26T01:32:13.292Z,1008.49
2019-02-26T01:33:11.130Z,1008.47
2019-02-26T01:34:13.250Z,1008.48
2019-02-26T01:35:12.832Z,1008.46
2019-02-26T01:36:11.100Z,1008.51
2019-02-26T01:37:12.060Z,1008.50
2019-02-26T01:38:12.573Z,1008.50
2019-02-26T01:39:11.996Z,1008.48
2019-02-26T01:40:15.104Z,1008.49
2019-02-26T01:41:11.349Z,1008.51
2019-02-26T01:42:13.375Z,1008.53
2019-02-26T01:43:11.027Z,1008.50
2019-02-26T01:44:11.014Z,1008.48
2019-02-26T01:45:11.009Z,1008.47
2019-02-26T01:46:11.675Z,1008.47
2019-02-26T01:47:11.001Z,1008.44
2019-02-26T01:48:11.855Z,1008.43
2019-02-26T01:49:12.144Z,1008.41
2019-02-26T01:50:12.842Z,1008.43
2019-02-26T01:51:10.936Z,1008.43
2019-02-26T01:52:12.712Z,1008.45
2019-02-26T01:53:12.123Z,1008.42
2019-02-26T01:54:12.222Z,1008.43
2019-02-26T01:55:11.119Z,1008.44
2019-02-26T01:56:10.893Z,1008.44
2019-02-26T01:57:10.872Z,1008.40
2019-02-26T01:58:10.860Z,1008.34
2019-02-26T01:59:10.865Z,1008.37
2019-02-26T02:00:10.847Z,1008.36
2019-02-26T02:01:13.992Z,1008.33
2019-02-26T02:02:14.793Z,1008.32
2019-02-26T02:03:11.802Z,1008.30
2019-02-26T02:04:12.752Z,1008.27
2019-02-26T02:05:10.799Z,1008.26
2019-02-26T02:06:11.776Z,1008.27
2019-02-26T02:07:10.759Z,1008.23
2019-02-26T02:08:13.066Z,1008.18
2019-02-26T02:09:13.255Z,1008.18
2019-02-26T02:10:10.729Z,1008.12
2019-02-26T02:11:10.739Z,1008.11
2019-02-26T02:12:11.052Z,1008.10
2019-02-26T02:13:11.454Z,1008.12
2019-02-26T02:14:12.629Z,1008.09
2019-02-26T02:15:12.485Z,1008.05
2019-02-26T02:16:10.672Z,1008.09
2019-02-26T02:17:11.532Z,1008.07
2019-02-26T02:18:10.808Z,1008.05
2019-02-26T02:19:10.638Z,1008.00
2019-02-26T02:20:13.113Z,1008.00
2019-02-26T02:21:10.619Z,1007.96
2019-02-26T02:22:12.272Z,1007.95
2019-02-26T02:23:10.612Z,1007.91
2019-02-26T02:24:12.675Z,1007.91
2019-02-26T02:25:10.773Z,1007.87
2019-02-26T02:26:11.649Z,1007.87
2019-02-26T02:27:12.605Z,1007.88
2019-02-26T02:28:10.719Z,1007.87
2019-02-26T02:29:12.611Z,1007.90
2019-02-26T02:30:14.147Z,1007.90
2019-02-26T02:31:11.505Z,1007.89
2019-02-26T02:32:10.674Z,1007.89
2019-02-26T02:33:10.492Z,1007.92
2019-02-26T02:34:10.474Z,1007.94
2019-02-26T02:35:12.627Z,1007.98
2019-02-26T02:36:11.738Z,1007.93
2019-02-26T02:37:10.453Z,1007.97
2019-02-26T02:38:10.635Z,1007.91
2019-02-26T02:39:13.204Z,1007.95
2019-02-26T02:40:11.429Z,1007.92
2019-02-26T02:41:10.403Z,1007.89
2019-02-26T02:42:10.794Z,1007.91
2019-02-26T02:43:12.327Z,1007.92
2019-02-26T02:44:12.428Z,1007.94
2019-02-26T02:45:11.373Z,1007.92
2019-02-26T02:46:10.370Z,1007.92
2019-02-26T02:47:11.297Z,1007.94
2019-02-26T02:48:11.747Z,1007.91
2019-02-26T02:49:12.602Z,1007.89
2019-02-26T02:50:12.633Z,1007.88
2019-02-26T02:51:13.517Z,1007.89
2019-02-26T02:52:11.841Z,1007.81
2019-02-26T02:53:10.280Z,1007.83
2019-02-26T02:54:12.222Z,1007.80
2019-02-26T02:55:13.860Z,1007.83
2019-02-26T02:56:12.893Z,1007.79
2019-02-26T02:57:10.235Z,1007.73
2019-02-26T02:58:12.401Z,1007.76
2019-02-26T02:59:11.266Z,1007.73
2019-02-26T03:00:10.208Z,1007.74
2019-02-26T03:01:10.194Z,1007.73
2019-02-26T03:02:12.656Z,1007.75
2019-02-26T03:03:10.411Z,1007.75
2019-02-26T03:04:10.200Z,1007.74
2019-02-26T03:05:10.150Z,1007.74
2019-02-26T03:06:12.279Z,1007.75
2019-02-26T03:07:10.140Z,1007.73
2019-02-26T03:08:10.915Z,1007.71
2019-02-26T03:09:11.698Z,1007.69
2019-02-26T03:10:11.984Z,1007.74
2019-02-26T03:11:10.095Z,1007.72
2019-02-26T03:12:10.083Z,1007.73
2019-02-26T03:13:10.071Z,1007.69
2019-02-26T03:14:10.935Z,1007.69
2019-02-26T03:15:10.197Z,1007.68
2019-02-26T03:16:10.037Z,1007.66
2019-02-26T03:17:11.151Z,1007.70
2019-02-26T03:18:12.531Z,1007.67
2019-02-26T03:19:12.121Z,1007.64
2019-02-26T03:20:10.209Z,1007.68
2019-02-26T03:21:09.990Z,1007.65
2019-02-26T03:22:12.661Z,1007.61
2019-02-26T03:23:15.119Z,1007.56
2019-02-26T03:24:10.953Z,1007.62
2019-02-26T03:25:09.966Z,1007.54
2019-02-26T03:26:12.645Z,1007.55
2019-02-26T03:27:10.922Z,1007.56
2019-02-26T03:28:09.918Z,1007.57
2019-02-26T03:29:10.095Z,1007.55
2019-02-26T03:30:09.893Z,1007.58
2019-02-26T03:31:09.907Z,1007.53
2019-02-26T03:32:09.889Z,1007.51
2019-02-26T03:33:09.890Z,1007.53
2019-02-26T03:34:14.472Z,1007.51
2019-02-26T03:35:13.218Z,1007.46
2019-02-26T03:36:11.138Z,1007.45
2019-02-26T03:37:10.987Z,1007.44
2019-02-26T03:38:09.810Z,1007.46
2019-02-26T03:39:09.810Z,1007.44
2019-02-26T03:40:09.789Z,1007.47
2019-02-26T03:41:09.778Z,1007.46
2019-02-26T03:42:10.562Z,1007.42
2019-02-26T03:43:12.381Z,1007.42
2019-02-26T03:44:09.748Z,1007.37
2019-02-26T03:45:09.734Z,1007.40
2019-02-26T03:46:09.728Z,1007.40
2019-02-26T03:47:09.713Z,1007.40
2019-02-26T03:48:09.931Z,1007.40
2019-02-26T03:49:10.027Z,1007.39
2019-02-26T03:50:09.711Z,1007.37
2019-02-26T03:51:09.682Z,1007.39
2019-02-26T03:52:09.663Z,1007.36
2019-02-26T03:53:10.110Z,1007.38
2019-02-26T03:54:09.816Z,1007.38
2019-02-26T03:55:12.126Z,1007.35
2019-02-26T03:56:12.529Z,1007.39
2019-02-26T03:57:11.461Z,1007.38
2019-02-26T03:58:09.602Z,1007.35
2019-02-26T03:59:11.693Z,1007.41
2019-02-26T04:00:11.469Z,1007.36
2019-02-26T04:01:10.927Z,1007.42
2019-02-26T04:02:11.770Z,1007.41
2019-02-26T04:03:11.904Z,1007.43
2019-02-26T04:04:09.541Z,1007.43
2019-02-26T04:05:09.531Z,1007.46
2019-02-26T04:06:11.734Z,1007.44
2019-02-26T04:07:10.593Z,1007.48
2019-02-26T04:08:09.500Z,1007.54
2019-02-26T04:09:11.078Z,1007.51
2019-02-26T04:10:09.483Z,1007.51
2019-02-26T04:11:09.465Z,1007.53
2019-02-26T04:12:11.250Z,1007.52
2019-02-26T04:13:09.702Z,1007.54
2019-02-26T04:14:12.151Z,1007.51
2019-02-26T04:15:09.435Z,1007.55
2019-02-26T04:16:09.636Z,1007.57
2019-02-26T04:17:09.417Z,1007.60
2019-02-26T04:18:09.400Z,1007.61
2019-02-26T04:19:09.496Z,1007.64
2019-02-26T04:20:09.583Z,1007.63
2019-02-26T04:21:11.878Z,1007.62
2019-02-26T04:22:12.451Z,1007.65
2019-02-26T04:23:11.384Z,1007.64
2019-02-26T04:24:11.423Z,1007.65
2019-02-26T04:25:09.555Z,1007.63
2019-02-26T04:26:09.311Z,1007.65
2019-02-26T04:27:09.298Z,1007.67
2019-02-26T04:28:10.964Z,1007.71
2019-02-26T04:29:09.284Z,1007.73
2019-02-26T04:30:11.061Z,1007.75
2019-02-26T04:31:09.481Z,1007.75
2019-02-26T04:32:11.866Z,1007.77
2019-02-26T04:33:11.441Z,1007.79
2019-02-26T04:34:09.225Z,1007.78
2019-02-26T04:35:09.223Z,1007.74
2019-02-26T04:36:11.197Z,1007.74
2019-02-26T04:37:10.423Z,1007.71
2019-02-26T04:38:09.403Z,1007.72
2019-02-26T04:39:10.847Z,1007.67
2019-02-26T04:40:11.837Z,1007.71
2019-02-26T04:41:12.409Z,1007.70
2019-02-26T04:42:11.348Z,1007.73
2019-02-26T04:43:10.473Z,1007.78
2019-02-26T04:44:09.339Z,1007.74
2019-02-26T04:45:09.404Z,1007.77
2019-02-26T04:46:10.742Z,1007.78
2019-02-26T04:47:09.099Z,1007.84
2019-02-26T04:48:09.080Z,1007.81
2019-02-26T04:49:09.090Z,1007.81
2019-02-26T04:50:09.280Z,1007.78
2019-02-26T04:51:09.082Z,1007.77
2019-02-26T04:52:11.134Z,1007.79
2019-02-26T04:53:11.175Z,1007.75
2019-02-26T04:54:09.015Z,1007.80
2019-02-26T04:55:09.029Z,1007.78
2019-02-26T04:56:12.770Z,1007.78
2019-02-26T04:57:09.992Z,1007.77
2019-02-26T04:58:11.236Z,1007.78
2019-02-26T04:59:09.821Z,1007.77
2019-02-26T05:00:10.613Z,1007.75
2019-02-26T05:01:10.123Z,1007.79
2019-02-26T05:02:08.939Z,1007.79
2019-02-26T05:03:11.227Z,1007.76
2019-02-26T05:04:09.970Z,1007.78
2019-02-26T05:05:08.902Z,1007.74
2019-02-26T05:06:10.813Z,1007.76
2019-02-26T05:07:12.755Z,1007.76
2019-02-26T05:08:10.531Z,1007.78
2019-02-26T05:09:10.558Z,1007.75
2019-02-26T05:10:09.089Z,1007.76
2019-02-26T05:11:08.836Z,1007.74
2019-02-26T05:12:08.890Z,1007.73
2019-02-26T05:13:09.668Z,1007.76
2019-02-26T05:14:09.207Z,1007.76
2019-02-26T05:15:11.599Z,1007.73
2019-02-26T05:16:09.859Z,1007.78
2019-02-26T05:17:08.774Z,1007.72
2019-02-26T05:18:08.967Z,1007.75
2019-02-26T05:19:10.607Z,1007.75
2019-02-26T05:20:10.585Z,1007.77
2019-02-26T05:21:10.838Z,1007.79
2019-02-26T05:22:08.720Z,1007.78
2019-02-26T05:23:08.730Z,1007.84
2019-02-26T05:24:08.719Z,1007.81
2019-02-26T05:25:11.711Z,1007.90
2019-02-26T05:26:11.727Z,1007.89
2019-02-26T05:27:12.123Z,1007.93
2019-02-26T05:28:10.053Z,1007.95
2019-02-26T05:29:08.666Z,1008.01
2019-02-26T05:30:09.753Z,1007.92
2019-02-26T05:31:11.253Z,1007.94
2019-02-26T05:32:09.331Z,1007.93
2019-02-26T05:33:08.823Z,1007.98
2019-02-26T05:34:08.622Z,1008.01
2019-02-26T05:35:08.585Z,1008.00
2019-02-26T05:36:09.546Z,1007.99
2019-02-26T05:37:10.979Z,1007.97
2019-02-26T05:38:09.631Z,1007.98
2019-02-26T05:39:08.712Z,1007.99
2019-02-26T05:40:10.430Z,1007.98
2019-02-26T05:41:08.521Z,1007.99
2019-02-26T05:42:08.526Z,1007.99
2019-02-26T05:43:08.515Z,1008.01
2019-02-26T05:44:10.547Z,1007.98
2019-02-26T05:45:09.325Z,1008.01
2019-02-26T05:46:08.675Z,1007.98
2019-02-26T05:47:08.541Z,1007.95
2019-02-26T05:48:08.446Z,1007.98
2019-02-26T05:49:10.592Z,1007.94
2019-02-26T05:50:12.360Z,1007.97
2019-02-26T05:51:10.897Z,1007.97
2019-02-26T05:52:08.414Z,1007.99
2019-02-26T05:53:10.487Z,1007.99
2019-02-26T05:54:11.536Z,1008.01
2019-02-26T05:55:09.387Z,1008.01
2019-02-26T05:56:08.890Z,1008.00
2019-02-26T05:57:10.837Z,1007.99
2019-02-26T05:58:09.981Z,1008.00
2019-02-26T05:59:09.527Z,1007.99
2019-02-26T06:00:11.009Z,1007.99
2019-02-26T06:01:08.313Z,1008.01
2019-02-26T06:02:10.573Z,1007.99
2019-02-26T06:03:09.542Z,1008.02
2019-02-26T06:04:10.100Z,1008.04
2019-02-26T06:05:08.282Z,1008.00
2019-02-26T06:06:08.264Z,1008.00
2019-02-26T06:07:08.247Z,1007.97
2019-02-26T06:08:08.241Z,1007.97
2019-02-26T06:09:08.291Z,1007.95
2019-02-26T06:10:08.217Z,1007.92
2019-02-26T06:11:08.218Z,1007.94
2019-02-26T06:12:08.194Z,1007.96
2019-02-26T06:13:10.063Z,1007.98
2019-02-26T06:14:11.978Z,1008.00
2019-02-26T06:15:08.526Z,1007.99
2019-02-26T06:16:08.164Z,1007.96
2019-02-26T06:17:10.507Z,1007.98
2019-02-26T06:18:08.145Z,1008.01
2019-02-26T06:19:09.037Z,1007.96
2019-02-26T06:20:10.839Z,1007.99
2019-02-26T06:21:08.144Z,1007.98
2019-02-26T06:22:08.935Z,1007.95
2019-02-26T06:23:08.114Z,1007.98
2019-02-26T06:24:08.096Z,1007.96
2019-02-26T06:25:13.495Z,1007.92
2019-02-26T06:26:13.877Z,1007.98
2019-02-26T06:27:13.098Z,1007.97
2019-02-26T06:28:10.561Z,1007.96
2019-02-26T06:29:08.331Z,1007.99
2019-02-26T06:30:09.980Z,1007.97
2019-02-26T06:31:11.484Z,1008.01
2019-02-26T06:32:09.610Z,1007.99
2019-02-26T06:33:09.745Z,1007.99
2019-02-26T06:34:08.807Z,1007.98
2019-02-26T06:35:08.541Z,1008.00
2019-02-26T06:36:08.148Z,1007.99
2019-02-26T06:37:10.033Z,1008.05
2019-02-26T06:38:09.208Z,1007.98
2019-02-26T06:39:07.907Z,1008.02
2019-02-26T06:40:07.897Z,1008.00
2019-02-26T06:41:07.912Z,1008.02
2019-02-26T06:42:09.799Z,1008.03
2019-02-26T06:43:07.865Z,1008.05
2019-02-26T06:44:07.857Z,1008.05
2019-02-26T06:45:08.531Z,1008.06
2019-02-26T06:46:11.174Z,1008.03
2019-02-26T06:47:09.133Z,1008.05
2019-02-26T06:48:07.822Z,1008.07
2019-02-26T06:49:07.804Z,1008.07
2019-02-26T06:50:08.883Z,1008.06
2019-02-26T06:51:07.810Z,1008.04
2019-02-26T06:52:08.429Z,1008.07
2019-02-26T06:53:09.142Z,1008.04
2019-02-26T06:54:08.023Z,1008.03
2019-02-26T06:55:07.849Z,1008.05
2019-02-26T06:56:07.748Z,1008.04
2019-02-26T06:57:07.749Z,1008.02
2019-02-26T06:58:07.710Z,1008.06
2019-02-26T06:59:09.630Z,1008.04
2019-02-26T07:00:07.693Z,1008.06
2019-02-26T07:01:09.477Z,1008.03
2019-02-26T07:02:08.812Z,1008.03
2019-02-26T07:03:07.820Z,1008.04
2019-02-26T07:04:12.165Z,1008.03
2019-02-26T07:05:08.633Z,1007.98
2019-02-26T07:06:07.874Z,1007.97
2019-02-26T07:07:12.232Z,1007.98
2019-02-26T07:08:08.620Z,1007.99
2019-02-26T07:09:08.720Z,1007.96
2019-02-26T07:10:07.594Z,1007.99
2019-02-26T07:11:07.579Z,1008.00
2019-02-26T07:12:07.569Z,1008.03
2019-02-26T07:13:09.438Z,1008.03
2019-02-26T07:14:08.558Z,1008.05
2019-02-26T07:15:11.644Z,1008.03
2019-02-26T07:16:07.523Z,1008.06
2019-02-26T07:17:07.513Z,1008.06
2019-02-26T07:18:09.487Z,1008.06
2019-02-26T07:19:09.189Z,1008.03
2019-02-26T07:20:07.498Z,1008.04
2019-02-26T07:21:07.475Z,1007.99
2019-02-26T07:22:08.472Z,1008.04
2019-02-26T07:23:08.792Z,1007.99
2019-02-26T07:24:07.816Z,1008.05
2019-02-26T07:25:08.363Z,1007.98
2019-02-26T07:26:07.441Z,1007.99
2019-02-26T07:27:09.151Z,1007.98
2019-02-26T07:28:07.395Z,1007.95
2019-02-26T07:29:08.115Z,1007.96
2019-02-26T07:30:07.375Z,1008.01
2019-02-26T07:31:09.437Z,1007.99
2019-02-26T07:32:07.368Z,1007.95
2019-02-26T07:33:08.160Z,1007.95
2019-02-26T07:34:07.500Z,1007.98
2019-02-26T07:35:08.713Z,1007.97
2019-02-26T07:36:07.316Z,1007.98
2019-02-26T07:37:08.942Z,1007.98
2019-02-26T07:38:07.318Z,1007.97
2019-02-26T07:39:07.726Z,1007.92
2019-02-26T07:40:08.789Z,1007.98
2019-02-26T07:41:07.278Z,1007.93
2019-02-26T07:42:09.094Z,1007.95
2019-02-26T07:43:09.207Z,1007.94
2019-02-26T07:44:12.678Z,1007.91
2019-02-26T07:45:14.963Z,1007.97
2019-02-26T07:46:10.378Z,1007.96
2019-02-26T07:47:08.846Z,1007.97
2019-02-26T07:48:07.199Z,1007.98
2019-02-26T07:49:07.446Z,1008.00
2019-02-26T07:50:09.208Z,1008.00
2019-02-26T07:51:07.391Z,1008.01
2019-02-26T07:52:08.758Z,1008.05
2019-02-26T07:53:07.132Z,1008.07
2019-02-26T07:54:07.135Z,1008.05
2019-02-26T07:55:09.169Z,1008.02
2019-02-26T07:56:08.669Z,1008.04
2019-02-26T07:57:07.096Z,1008.02
2019-02-26T07:58:09.158Z,1007.97
2019-02-26T07:59:09.768Z,1008.02
2019-02-26T08:00:07.092Z,1008.03
2019-02-26T08:01:07.048Z,1008.01
2019-02-26T08:02:08.852Z,1008.02
2019-02-26T08:03:07.026Z,1008.04
2019-02-26T08:04:08.586Z,1008.02
2019-02-26T08:05:07.005Z,1008.01
2019-02-26T08:06:09.227Z,1007.97
2019-02-26T08:07:06.999Z,1007.96
2019-02-26T08:08:06.986Z,1007.94
2019-02-26T08:09:10.836Z,1007.95
2019-02-26T08:10:09.942Z,1007.93
2019-02-26T08:11:06.943Z,1007.93
2019-02-26T08:12:08.966Z,1007.92
2019-02-26T08:13:08.035Z,1007.93
2019-02-26T08:14:06.912Z,1007.92
2019-02-26T08:15:08.729Z,1007.94
2019-02-26T08:16:06.888Z,1007.92
2019-02-26T08:17:06.871Z,1007.92
2019-02-26T08:18:07.065Z,1007.92
2019-02-26T08:19:06.876Z,1007.89
2019-02-26T08:20:08.150Z,1007.92
2019-02-26T08:21:07.118Z,1007.86
2019-02-26T08:22:06.827Z,1007.85
2019-02-26T08:23:06.819Z,1007.88
2019-02-26T08:24:06.805Z,1007.91
2019-02-26T08:25:06.819Z,1007.90
2019-02-26T08:26:06.779Z,1007.91
2019-02-26T08:27:08.529Z,1007.86
2019-02-26T08:28:06.936Z,1007.88
2019-02-26T08:29:07.565Z,1007.83
2019-02-26T08:30:06.876Z,1007.88
2019-02-26T08:31:06.746Z,1007.90
2019-02-26T08:32:06.719Z,1007.87
2019-02-26T08:33:07.463Z,1007.89
2019-02-26T08:34:06.708Z,1007.91
2019-02-26T08:35:06.692Z,1007.91
2019-02-26T08:36:06.677Z,1007.93
2019-02-26T08:37:06.682Z,1007.92
2019-02-26T08:38:06.942Z,1007.94
2019-02-26T08:39:06.652Z,1007.99
2019-02-26T08:40:06.630Z,1007.99
2019-02-26T08:41:06.624Z,1008.00
2019-02-26T08:42:06.823Z,1008.01
2019-02-26T08:43:06.620Z,1007.99
2019-02-26T08:44:06.620Z,1008.00
2019-02-26T08:45:06.587Z,1007.96
2019-02-26T08:46:07.358Z,1007.95
2019-02-26T08:47:11.158Z,1007.95
2019-02-26T08:48:07.566Z,1007.97
2019-02-26T08:49:08.750Z,1008.01
2019-02-26T08:50:07.448Z,1008.02
2019-02-26T08:51:10.703Z,1008.02
2019-02-26T08:52:07.506Z,1008.03
2019-02-26T08:53:06.491Z,1008.00
2019-02-26T08:54:06.499Z,1007.96
2019-02-26T08:55:07.178Z,1008.00
2019-02-26T08:56:08.366Z,1007.98
2019-02-26T08:57:06.449Z,1007.95
2019-02-26T08:58:07.674Z,1007.93
2019-02-26T08:59:06.429Z,1007.92
2019-02-26T09:00:06.458Z,1007.89
2019-02-26T09:01:06.409Z,1007.90
2019-02-26T09:02:06.417Z,1007.87
2019-02-26T09:03:08.275Z,1007.90
2019-02-26T09:04:06.784Z,1007.88
2019-02-26T09:05:07.511Z,1007.88
2019-02-26T09:06:12.747Z,1007.89
2019-02-26T09:07:07.362Z,1007.87
2019-02-26T09:08:08.485Z,1007.88
2019-02-26T09:09:06.846Z,1007.87
2019-02-26T09:10:07.214Z,1007.83
2019-02-26T09:11:08.124Z,1007.87
2019-02-26T09:12:06.316Z,1007.89
2019-02-26T09:13:08.756Z,1007.87
2019-02-26T09:14:07.119Z,1007.84
2019-02-26T09:15:06.273Z,1007.85
2019-02-26T09:16:07.906Z,1007.85
2019-02-26T09:17:06.260Z,1007.85
2019-02-26T09:18:06.237Z,1007.86
2019-02-26T09:19:06.219Z,1007.85
2019-02-26T09:20:09.756Z,1007.82
2019-02-26T09:21:07.268Z,1007.83
2019-02-26T09:22:09.690Z,1007.80
2019-02-26T09:23:07.178Z,1007.85
2019-02-26T09:24:07.682Z,1007.84
2019-02-26T09:25:06.204Z,1007.80
2019-02-26T09:26:07.046Z,1007.77
2019-02-26T09:27:06.149Z,1007.77
2019-02-26T09:28:06.143Z,1007.81
2019-02-26T09:29:06.109Z,1007.77
2019-02-26T09:30:08.451Z,1007.78
2019-02-26T09:31:06.781Z,1007.80
2019-02-26T09:32:07.349Z,1007.81
2019-02-26T09:33:08.321Z,1007.77
2019-02-26T09:34:06.062Z,1007.78
2019-02-26T09:35:06.045Z,1007.79
2019-02-26T09:36:06.036Z,1007.75
2019-02-26T09:37:07.994Z,1007.82
2019-02-26T09:38:06.032Z,1007.79
2019-02-26T09:39:08.186Z,1007.79
2019-02-26T09:40:05.993Z,1007.81
2019-02-26T09:41:05.988Z,1007.83
2019-02-26T09:42:06.539Z,1007.87
2019-02-26T09:43:06.305Z,1007.88
2019-02-26T09:44:06.793Z,1007.84
2019-02-26T09:45:05.956Z,1007.86
2019-02-26T09:46:08.977Z,1007.84
2019-02-26T09:47:07.553Z,1007.86
2019-02-26T09:48:05.908Z,1007.84
2019-02-26T09:49:09.956Z,1007.84
2019-02-26T09:50:06.902Z,1007.86
2019-02-26T09:51:07.595Z,1007.87
2019-02-26T09:52:06.579Z,1007.81
2019-02-26T09:53:05.876Z,1007.84
2019-02-26T09:54:05.843Z,1007.84
2019-02-26T09:55:05.831Z,1007.89
2019-02-26T09:56:05.824Z,1007.85
2019-02-26T09:57:05.839Z,1007.88
2019-02-26T09:58:05.818Z,1007.83
2019-02-26T09:59:07.178Z,1007.82
2019-02-26T10:00:05.778Z,1007.85
2019-02-26T10:01:06.837Z,1007.85
2019-02-26T10:02:06.137Z,1007.82
2019-02-26T10:03:07.980Z,1007.82
2019-02-26T10:04:05.762Z,1007.83
2019-02-26T10:05:06.355Z,1007.86
2019-02-26T10:06:05.720Z,1007.89
2019-02-26T10:07:08.849Z,1007.91
2019-02-26T10:08:05.697Z,1007.85
2019-02-26T10:09:05.707Z,1007.93
2019-02-26T10:10:06.534Z,1007.92
2019-02-26T10:11:05.676Z,1007.95
2019-02-26T10:12:07.565Z,1007.97
2019-02-26T10:13:05.639Z,1007.97
2019-02-26T10:14:07.798Z,1007.95
2019-02-26T10:15:05.641Z,1007.98
2019-02-26T10:16:06.470Z,1007.99
2019-02-26T10:17:05.601Z,1007.93
2019-02-26T10:18:07.210Z,1007.89
2019-02-26T10:19:05.573Z,1007.93
2019-02-26T10:20:07.700Z,1007.91
2019-02-26T10:21:08.526Z,1007.94
2019-02-26T10:22:08.996Z,1007.98
2019-02-26T10:23:06.294Z,1007.99
2019-02-26T10:24:05.519Z,1007.93
2019-02-26T10:25:05.515Z,1007.96
2019-02-26T10:26:07.647Z,1007.92
2019-02-26T10:27:06.612Z,1007.98
2019-02-26T10:28:08.679Z,1008.00
2019-02-26T10:29:07.985Z,1007.95
2019-02-26T10:30:07.888Z,1007.97
2019-02-26T10:31:07.786Z,1007.96
2019-02-26T10:32:05.442Z,1007.96
2019-02-26T10:33:05.464Z,1007.95
2019-02-26T10:34:07.801Z,1007.90
2019-02-26T10:35:06.568Z,1007.89
2019-02-26T10:36:07.891Z,1007.91
2019-02-26T10:37:05.383Z,1007.89
2019-02-26T10:38:08.078Z,1007.92
2019-02-26T10:39:07.367Z,1007.85
2019-02-26T10:40:07.141Z,1007.83
2019-02-26T10:41:05.342Z,1007.81
2019-02-26T10:42:05.329Z,1007.85
2019-02-26T10:43:05.339Z,1007.87
2019-02-26T10:44:05.312Z,1007.90
2019-02-26T10:45:05.336Z,1007.84
2019-02-26T10:46:05.284Z,1007.83
2019-02-26T10:47:06.303Z,1007.88
2019-02-26T10:48:05.280Z,1007.85
2019-02-26T10:49:05.474Z,1007.82
2019-02-26T10:50:05.252Z,1007.79
2019-02-26T10:51:06.504Z,1007.82
2019-02-26T10:52:05.219Z,1007.84
2019-02-26T10:53:09.662Z,1007.77
2019-02-26T10:54:08.929Z,1007.83
2019-02-26T10:55:06.186Z,1007.86
2019-02-26T10:56:05.177Z,1007.88
2019-02-26T10:57:07.610Z,1007.85
2019-02-26T10:58:10.054Z,1007.77
2019-02-26T10:59:06.791Z,1007.84
2019-02-26T11:00:07.890Z,1007.83
2019-02-26T11:01:05.484Z,1007.77
2019-02-26T11:02:05.114Z,1007.83
2019-02-26T11:03:06.550Z,1007.80
2019-02-26T11:04:05.094Z,1007.84
2019-02-26T11:05:05.079Z,1007.79
2019-02-26T11:06:07.383Z,1007.81
2019-02-26T11:07:08.730Z,1007.79
2019-02-26T11:08:09.153Z,1007.80
2019-02-26T11:09:05.094Z,1007.82
2019-02-26T11:10:05.024Z,1007.77
2019-02-26T11:11:07.413Z,1007.78
2019-02-26T11:12:07.857Z,1007.75
2019-02-26T11:13:05.003Z,1007.81
2019-02-26T11:14:07.176Z,1007.77
2019-02-26T11:15:06.795Z,1007.77
2019-02-26T11:16:04.963Z,1007.80
2019-02-26T11:17:04.951Z,1007.75
2019-02-26T11:18:04.946Z,1007.77
2019-02-26T11:19:06.992Z,1007.78
2019-02-26T11:20:07.582Z,1007.72
2019-02-26T11:21:04.918Z,1007.73
2019-02-26T11:22:04.895Z,1007.69
2019-02-26T11:23:07.991Z,1007.70
2019-02-26T11:24:06.134Z,1007.68
2019-02-26T11:25:04.869Z,1007.68
2019-02-26T11:26:06.611Z,1007.71
2019-02-26T11:27:04.857Z,1007.67
2019-02-26T11:28:07.301Z,1007.64
2019-02-26T11:29:04.841Z,1007.66
2019-02-26T11:30:05.131Z,1007.65
2019-02-26T11:31:05.009Z,1007.64
2019-02-26T11:32:07.609Z,1007.60
2019-02-26T11:33:06.106Z,1007.56
2019-02-26T11:34:07.277Z,1007.58
2019-02-26T11:35:05.771Z,1007.55
2019-02-26T11:36:05.526Z,1007.54
2019-02-26T11:37:08.668Z,1007.49
2019-02-26T11:38:04.723Z,1007.56
2019-02-26T11:39:06.723Z,1007.53
2019-02-26T11:40:05.521Z,1007.48
2019-02-26T11:41:04.708Z,1007.49
2019-02-26T11:42:04.685Z,1007.51
2019-02-26T11:43:11.501Z,1007.46
2019-02-26T11:44:10.025Z,1007.45
2019-02-26T11:45:08.893Z,1007.48
2019-02-26T11:46:06.953Z,1007.41
2019-02-26T11:47:04.648Z,1007.38
2019-02-26T11:48:06.631Z,1007.42
2019-02-26T11:49:04.617Z,1007.40
2019-02-26T11:50:06.888Z,1007.43
2019-02-26T11:51:04.585Z,1007.45
2019-02-26T11:52:04.711Z,1007.41
2019-02-26T11:53:04.605Z,1007.47
2019-02-26T11:54:04.949Z,1007.45
2019-02-26T11:55:06.583Z,1007.48
2019-02-26T11:56:04.533Z,1007.48
2019-02-26T11:57:07.432Z,1007.46
2019-02-26T11:58:08.073Z,1007.48
2019-02-26T11:59:06.552Z,1007.42
2019-02-26T12:00:06.743Z,1007.43
2019-02-26T12:01:04.477Z,1007.36
2019-02-26T12:02:06.326Z,1007.34
2019-02-26T12:03:04.457Z,1007.38
2019-02-26T12:04:06.030Z,1007.33
2019-02-26T12:05:05.637Z,1007.35